sensor_id;sensor_type;location;lat;lon;timestamp;pressure;altitude;pressure_sealevel;temperature;humidity
72110;BME280;59983;52.010;5.420;2022-10-17T00:02:06;101679.47;;;14.80;90.05
72110;BME280;59983;52.010;5.420;2022-10-17T00:04:32;101685.72;;;14.80;89.92
72110;BME280;59983;52.010;5.420;2022-10-17T00:06:59;101674.78;;;14.80;89.94
72110;BME280;59983;52.010;5.420;2022-10-17T00:09:26;101666.53;;;14.77;89.98
72110;BME280;59983;52.010;5.420;2022-10-17T00:11:52;101669.59;;;14.75;90.17
72110;BME280;59983;52.010;5.420;2022-10-17T00:14:19;101660.97;;;14.73;90.42
72110;BME280;59983;52.010;5.420;2022-10-17T00:16:45;101665.28;;;14.74;90.75
72110;BME280;59983;52.010;5.420;2022-10-17T00:19:12;101654.72;;;14.72;90.53
72110;BME280;59983;52.010;5.420;2022-10-17T00:21:38;101650.03;;;14.73;90.92
72110;BME280;59983;52.010;5.420;2022-10-17T00:24:05;101655.94;;;14.75;90.44
72110;BME280;59983;52.010;5.420;2022-10-17T00:26:31;101648.63;;;14.79;90.69
72110;BME280;59983;52.010;5.420;2022-10-17T00:28:58;101640.44;;;14.79;90.85
72110;BME280;59983;52.010;5.420;2022-10-17T00:31:24;101653.72;;;14.81;90.85
72110;BME280;59983;52.010;5.420;2022-10-17T00:33:51;101661.13;;;14.80;90.87
72110;BME280;59983;52.010;5.420;2022-10-17T00:36:21;101650.94;;;14.77;91.05
72110;BME280;59983;52.010;5.420;2022-10-17T00:38:52;101651.00;;;14.81;91.18
72110;BME280;59983;52.010;5.420;2022-10-17T00:41:21;101657.63;;;14.80;91.18
72110;BME280;59983;52.010;5.420;2022-10-17T00:43:52;101651.28;;;14.76;91.36
72110;BME280;59983;52.010;5.420;2022-10-17T00:46:20;101647.59;;;14.68;91.62
72110;BME280;59983;52.010;5.420;2022-10-17T00:48:52;101650.75;;;14.70;91.75
72110;BME280;59983;52.010;5.420;2022-10-17T00:51:20;101645.00;;;14.75;91.74
72110;BME280;59983;52.010;5.420;2022-10-17T00:53:48;101637.97;;;14.74;91.83
72110;BME280;59983;52.010;5.420;2022-10-17T00:56:18;101634.09;;;14.75;91.85
72110;BME280;59983;52.010;5.420;2022-10-17T00:58:46;101636.47;;;14.77;91.80
72110;BME280;59983;52.010;5.420;2022-10-17T01:01:13;101629.09;;;14.77;91.67
72110;BME280;59983;52.010;5.420;2022-10-17T01:03:40;101626.72;;;14.76;92.05
72110;BME280;59983;52.010;5.420;2022-10-17T01:06:07;101627.50;;;14.76;92.38
72110;BME280;59983;52.010;5.420;2022-10-17T01:08:33;101621.31;;;14.79;92.10
72110;BME280;59983;52.010;5.420;2022-10-17T01:11:49;101625.63;;;14.80;92.07
72110;BME280;59983;52.010;5.420;2022-10-17T01:14:04;101631.88;;;14.81;92.20
72110;BME280;59983;52.010;5.420;2022-10-17T01:16:57;101628.78;;;14.82;92.18
72110;BME280;59983;52.010;5.420;2022-10-17T01:22:20;101614.72;;;14.80;92.09
72110;BME280;59983;52.010;5.420;2022-10-17T01:27:55;101603.34;;;14.78;92.37
72110;BME280;59983;52.010;5.420;2022-10-17T01:33:32;101615.06;;;14.79;92.34
72110;BME280;59983;52.010;5.420;2022-10-17T01:36:10;101615.84;;;14.79;92.16
72110;BME280;59983;52.010;5.420;2022-10-17T01:38:47;101621.25;;;14.76;92.11
72110;BME280;59983;52.010;5.420;2022-10-17T01:41:28;101626.25;;;14.73;92.29
72110;BME280;59983;52.010;5.420;2022-10-17T01:44:22;101616.56;;;14.76;91.85
72110;BME280;59983;52.010;5.420;2022-10-17T01:46:53;101617.38;;;14.77;92.20
72110;BME280;59983;52.010;5.420;2022-10-17T01:49:27;101613.75;;;14.72;92.41
72110;BME280;59983;52.010;5.420;2022-10-17T01:51:59;101609.44;;;14.71;92.11
72110;BME280;59983;52.010;5.420;2022-10-17T01:56:59;101601.31;;;14.75;92.25
72110;BME280;59983;52.010;5.420;2022-10-17T01:59:47;101598.25;;;14.77;92.30
72110;BME280;59983;52.010;5.420;2022-10-17T02:02:17;101587.31;;;14.77;92.57
72110;BME280;59983;52.010;5.420;2022-10-17T02:04:46;101591.19;;;14.76;92.67
72110;BME280;59983;52.010;5.420;2022-10-17T02:07:14;101593.47;;;14.73;92.75
72110;BME280;59983;52.010;5.420;2022-10-17T02:09:40;101588.38;;;14.72;92.85
72110;BME280;59983;52.010;5.420;2022-10-17T02:15:09;101589.88;;;14.69;92.96
72110;BME280;59983;52.010;5.420;2022-10-17T02:20:52;101584.91;;;14.75;93.38
72110;BME280;59983;52.010;5.420;2022-10-17T02:23:40;101578.34;;;14.76;93.31
72110;BME280;59983;52.010;5.420;2022-10-17T02:29:03;101574.97;;;14.83;94.05
72110;BME280;59983;52.010;5.420;2022-10-17T02:31:43;101568.00;;;14.85;94.26
72110;BME280;59983;52.010;5.420;2022-10-17T02:34:16;101572.31;;;14.86;94.75
72110;BME280;59983;52.010;5.420;2022-10-17T02:36:49;101560.69;;;14.89;94.51
72110;BME280;59983;52.010;5.420;2022-10-17T02:39:19;101567.81;;;14.94;94.28
72110;BME280;59983;52.010;5.420;2022-10-17T02:41:49;101566.72;;;14.98;94.29
72110;BME280;59983;52.010;5.420;2022-10-17T02:44:18;101563.28;;;15.01;94.41
72110;BME280;59983;52.010;5.420;2022-10-17T02:46:50;101574.94;;;14.98;94.60
72110;BME280;59983;52.010;5.420;2022-10-17T02:49:24;101570.97;;;14.96;94.79
72110;BME280;59983;52.010;5.420;2022-10-17T02:55:10;101576.09;;;14.97;94.56
72110;BME280;59983;52.010;5.420;2022-10-17T02:57:41;101583.91;;;14.99;94.59
72110;BME280;59983;52.010;5.420;2022-10-17T03:00:11;101579.59;;;14.98;94.59
72110;BME280;59983;52.010;5.420;2022-10-17T03:02:45;101588.53;;;14.95;94.69
72110;BME280;59983;52.010;5.420;2022-10-17T03:05:16;101586.56;;;14.95;94.88
72110;BME280;59983;52.010;5.420;2022-10-17T03:07:43;101581.13;;;14.95;95.17
72110;BME280;59983;52.010;5.420;2022-10-17T03:10:09;101583.91;;;14.99;95.07
72110;BME280;59983;52.010;5.420;2022-10-17T03:12:36;101583.56;;;15.00;95.01
72110;BME280;59983;52.010;5.420;2022-10-17T03:15:03;101581.59;;;15.01;95.06
72110;BME280;59983;52.010;5.420;2022-10-17T03:17:30;101579.66;;;15.01;94.71
72110;BME280;59983;52.010;5.420;2022-10-17T03:19:57;101591.06;;;15.04;94.63
72110;BME280;59983;52.010;5.420;2022-10-17T03:22:23;101579.66;;;15.01;94.66
72110;BME280;59983;52.010;5.420;2022-10-17T03:24:50;101588.59;;;14.98;94.36
72110;BME280;59983;52.010;5.420;2022-10-17T03:27:16;101581.28;;;15.02;94.35
72110;BME280;59983;52.010;5.420;2022-10-17T03:29:43;101580.13;;;15.04;94.28
72110;BME280;59983;52.010;5.420;2022-10-17T03:32:09;101579.34;;;15.03;94.22
72110;BME280;59983;52.010;5.420;2022-10-17T03:34:36;101584.00;;;15.02;93.93
72110;BME280;59983;52.010;5.420;2022-10-17T03:37:02;101583.22;;;15.02;93.89
72110;BME280;59983;52.010;5.420;2022-10-17T03:39:29;101581.28;;;15.02;93.96
72110;BME280;59983;52.010;5.420;2022-10-17T03:41:55;101582.84;;;15.04;93.76
72110;BME280;59983;52.010;5.420;2022-10-17T03:44:21;101591.41;;;15.02;93.71
72110;BME280;59983;52.010;5.420;2022-10-17T03:46:48;101607.44;;;15.04;93.87
72110;BME280;59983;52.010;5.420;2022-10-17T03:49:14;101597.66;;;15.02;93.80
72110;BME280;59983;52.010;5.420;2022-10-17T03:51:41;101596.00;;;14.98;93.57
72110;BME280;59983;52.010;5.420;2022-10-17T03:54:07;101603.03;;;14.99;93.48
72110;BME280;59983;52.010;5.420;2022-10-17T03:56:34;101601.09;;;14.99;93.57
72110;BME280;59983;52.010;5.420;2022-10-17T03:59:00;101592.53;;;15.01;93.73
72110;BME280;59983;52.010;5.420;2022-10-17T04:01:27;101584.81;;;15.03;93.76
72110;BME280;59983;52.010;5.420;2022-10-17T04:03:55;101584.88;;;15.07;93.76
72110;BME280;59983;52.010;5.420;2022-10-17T04:06:21;101588.03;;;15.09;93.67
72110;BME280;59983;52.010;5.420;2022-10-17T04:08:49;101587.66;;;15.10;93.65
72110;BME280;59983;52.010;5.420;2022-10-17T04:11:18;101594.66;;;15.08;93.68
72110;BME280;59983;52.010;5.420;2022-10-17T04:13:45;101600.91;;;15.08;93.45
72110;BME280;59983;52.010;5.420;2022-10-17T04:16:13;101600.91;;;15.08;93.44
72110;BME280;59983;52.010;5.420;2022-10-17T04:18:41;101601.63;;;15.05;93.52
72110;BME280;59983;52.010;5.420;2022-10-17T04:21:08;101605.50;;;15.04;93.37
72110;BME280;59983;52.010;5.420;2022-10-17T04:23:35;101606.66;;;15.03;93.44
72110;BME280;59983;52.010;5.420;2022-10-17T04:26:03;101609.03;;;15.05;93.45
72110;BME280;59983;52.010;5.420;2022-10-17T04:28:31;101604.97;;;14.98;93.69
72110;BME280;59983;52.010;5.420;2022-10-17T04:30:59;101608.13;;;15.00;93.91
72110;BME280;59983;52.010;5.420;2022-10-17T04:33:26;101626.13;;;15.01;94.12
72110;BME280;59983;52.010;5.420;2022-10-17T04:38:22;101613.34;;;15.06;94.60
72110;BME280;59983;52.010;5.420;2022-10-17T04:40:56;101617.72;;;15.10;94.50
72110;BME280;59983;52.010;5.420;2022-10-17T04:43:22;101627.53;;;15.11;94.25
72110;BME280;59983;52.010;5.420;2022-10-17T04:45:49;101629.13;;;15.12;94.79
72110;BME280;59983;52.010;5.420;2022-10-17T04:48:15;101634.56;;;15.12;94.91
72110;BME280;59983;52.010;5.420;2022-10-17T04:50:52;101632.28;;;15.14;95.24
72110;BME280;59983;52.010;5.420;2022-10-17T04:53:19;101639.75;;;15.17;95.15
72110;BME280;59983;52.010;5.420;2022-10-17T04:55:45;101639.38;;;15.19;95.58
72110;BME280;59983;52.010;5.420;2022-10-17T04:58:12;101653.16;;;15.22;95.63
72110;BME280;59983;52.010;5.420;2022-10-17T05:00:38;101637.91;;;15.21;95.82
72110;BME280;59983;52.010;5.420;2022-10-17T05:03:05;101652.34;;;15.22;95.95
72110;BME280;59983;52.010;5.420;2022-10-17T05:05:31;101652.34;;;15.22;96.27
72110;BME280;59983;52.010;5.420;2022-10-17T05:07:58;101648.47;;;15.23;96.27
72110;BME280;59983;52.010;5.420;2022-10-17T05:10:25;101652.00;;;15.23;96.39
72110;BME280;59983;52.010;5.420;2022-10-17T05:12:51;101648.91;;;15.25;96.35
72110;BME280;59983;52.010;5.420;2022-10-17T05:15:17;101653.22;;;15.26;96.43
72110;BME280;59983;52.010;5.420;2022-10-17T05:17:44;101639.19;;;15.27;96.41
72110;BME280;59983;52.010;5.420;2022-10-17T05:20:11;101641.91;;;15.27;96.28
72110;BME280;59983;52.010;5.420;2022-10-17T05:22:38;101646.69;;;15.30;96.18
72110;BME280;59983;52.010;5.420;2022-10-17T05:25:07;101641.66;;;15.33;95.90
72110;BME280;59983;52.010;5.420;2022-10-17T05:27:34;101645.53;;;15.32;95.63
72110;BME280;59983;52.010;5.420;2022-10-17T05:30:00;101643.59;;;15.32;95.60
72110;BME280;59983;52.010;5.420;2022-10-17T05:32:27;101656.47;;;15.32;95.29
72110;BME280;59983;52.010;5.420;2022-10-17T05:34:53;101661.16;;;15.31;95.65
72110;BME280;59983;52.010;5.420;2022-10-17T05:37:20;101654.53;;;15.32;95.80
72110;BME280;59983;52.010;5.420;2022-10-17T05:39:46;101658.50;;;15.35;95.74
72110;BME280;59983;52.010;5.420;2022-10-17T05:42:16;101663.59;;;15.36;96.06
72110;BME280;59983;52.010;5.420;2022-10-17T05:44:43;101656.19;;;15.37;95.85
72110;BME280;59983;52.010;5.420;2022-10-17T05:47:10;101651.88;;;15.36;95.71
72110;BME280;59983;52.010;5.420;2022-10-17T05:49:36;101653.44;;;15.37;95.42
72110;BME280;59983;52.010;5.420;2022-10-17T05:52:15;101655.75;;;15.35;95.25
72110;BME280;59983;52.010;5.420;2022-10-17T05:54:41;101657.34;;;15.36;95.27
72110;BME280;59983;52.010;5.420;2022-10-17T05:57:07;101656.13;;;15.33;95.20
72110;BME280;59983;52.010;5.420;2022-10-17T05:59:34;101649.06;;;15.32;95.32
72110;BME280;59983;52.010;5.420;2022-10-17T06:02:00;101658.06;;;15.33;95.19
72110;BME280;59983;52.010;5.420;2022-10-17T06:04:27;101662.72;;;15.32;95.30
72110;BME280;59983;52.010;5.420;2022-10-17T06:06:53;101663.16;;;15.34;95.24
72110;BME280;59983;52.010;5.420;2022-10-17T06:09:22;101661.59;;;15.33;94.84
72110;BME280;59983;52.010;5.420;2022-10-17T06:11:48;101661.94;;;15.32;95.26
72110;BME280;59983;52.010;5.420;2022-10-17T06:14:15;101673.31;;;15.34;94.92
72110;BME280;59983;52.010;5.420;2022-10-17T06:16:41;101660.00;;;15.32;94.97
72110;BME280;59983;52.010;5.420;2022-10-17T06:19:09;101667.41;;;15.32;94.67
72110;BME280;59983;52.010;5.420;2022-10-17T06:21:37;101663.88;;;15.31;94.87
72110;BME280;59983;52.010;5.420;2022-10-17T06:24:04;101672.53;;;15.33;94.78
72110;BME280;59983;52.010;5.420;2022-10-17T06:26:30;101674.47;;;15.33;94.97
72110;BME280;59983;52.010;5.420;2022-10-17T06:28:57;101676.03;;;15.34;94.91
72110;BME280;59983;52.010;5.420;2022-10-17T06:31:23;101677.25;;;15.36;94.71
72110;BME280;59983;52.010;5.420;2022-10-17T06:33:50;101687.88;;;15.38;95.07
72110;BME280;59983;52.010;5.420;2022-10-17T06:36:17;101702.75;;;15.40;94.87
72110;BME280;59983;52.010;5.420;2022-10-17T06:38:44;101694.97;;;15.42;94.95
72110;BME280;59983;52.010;5.420;2022-10-17T06:41:13;101689.88;;;15.41;95.00
72110;BME280;59983;52.010;5.420;2022-10-17T06:43:41;101686.41;;;15.44;95.00
72110;BME280;59983;52.010;5.420;2022-10-17T06:46:13;101698.94;;;15.45;95.17
72110;BME280;59983;52.010;5.420;2022-10-17T06:48:40;101701.34;;;15.46;95.68
72110;BME280;59983;52.010;5.420;2022-10-17T06:51:06;101705.66;;;15.47;95.56
72110;BME280;59983;52.010;5.420;2022-10-17T06:53:38;101707.66;;;15.50;95.74
72110;BME280;59983;52.010;5.420;2022-10-17T06:56:06;101708.09;;;15.52;95.54
72110;BME280;59983;52.010;5.420;2022-10-17T06:58:34;101706.94;;;15.53;95.69
72110;BME280;59983;52.010;5.420;2022-10-17T07:01:04;101709.78;;;15.57;95.39
72110;BME280;59983;52.010;5.420;2022-10-17T07:03:31;101722.66;;;15.56;95.24
72110;BME280;59983;52.010;5.420;2022-10-17T07:05:58;101726.97;;;15.57;95.57
72110;BME280;59983;52.010;5.420;2022-10-17T07:08:25;101726.59;;;15.59;95.50
72110;BME280;59983;52.010;5.420;2022-10-17T07:10:52;101727.84;;;15.62;95.24
72110;BME280;59983;52.010;5.420;2022-10-17T07:13:18;101731.38;;;15.62;95.14
72110;BME280;59983;52.010;5.420;2022-10-17T07:15:45;101737.31;;;15.64;95.12
72110;BME280;59983;52.010;5.420;2022-10-17T07:18:12;101735.44;;;15.68;95.09
72110;BME280;59983;52.010;5.420;2022-10-17T07:20:39;101736.66;;;15.71;94.84
72110;BME280;59983;52.010;5.420;2022-10-17T07:23:05;101747.22;;;15.72;94.84
72110;BME280;59983;52.010;5.420;2022-10-17T07:25:32;101735.16;;;15.73;95.19
72110;BME280;59983;52.010;5.420;2022-10-17T07:28:04;101729.69;;;15.73;95.27
72110;BME280;59983;52.010;5.420;2022-10-17T07:30:31;101732.84;;;15.75;95.30
72110;BME280;59983;52.010;5.420;2022-10-17T07:32:58;101733.28;;;15.77;94.89
72110;BME280;59983;52.010;5.420;2022-10-17T07:35:24;101744.66;;;15.79;95.06
72110;BME280;59983;52.010;5.420;2022-10-17T07:37:51;101744.28;;;15.81;95.32
72110;BME280;59983;52.010;5.420;2022-10-17T07:40:17;101736.91;;;15.81;95.07
72110;BME280;59983;52.010;5.420;2022-10-17T07:42:44;101732.28;;;15.85;94.80
72110;BME280;59983;52.010;5.420;2022-10-17T07:45:10;101738.56;;;15.86;94.70
72110;BME280;59983;52.010;5.420;2022-10-17T07:47:37;101754.59;;;15.88;94.76
72110;BME280;59983;52.010;5.420;2022-10-17T07:50:04;101772.59;;;15.89;95.56
72110;BME280;59983;52.010;5.420;2022-10-17T07:52:31;101789.38;;;15.87;96.10
72110;BME280;59983;52.010;5.420;2022-10-17T07:54:58;101820.28;;;15.88;96.69
72110;BME280;59983;52.010;5.420;2022-10-17T07:57:24;101853.91;;;15.88;96.87
72110;BME280;59983;52.010;5.420;2022-10-17T07:59:51;101877.28;;;15.85;97.15
72110;BME280;59983;52.010;5.420;2022-10-17T08:02:26;101890.91;;;15.82;97.84
72110;BME280;59983;52.010;5.420;2022-10-17T08:04:53;101893.72;;;15.85;98.65
72110;BME280;59983;52.010;5.420;2022-10-17T08:07:20;101905.44;;;15.86;99.28
72110;BME280;59983;52.010;5.420;2022-10-17T08:09:52;101903.88;;;15.85;100.00
72110;BME280;59983;52.010;5.420;2022-10-17T08:12:18;101901.13;;;15.85;100.00
72110;BME280;59983;52.010;5.420;2022-10-17T08:14:45;101896.19;;;15.91;100.00
72110;BME280;59983;52.010;5.420;2022-10-17T08:17:11;101883.31;;;15.91;100.00
72110;BME280;59983;52.010;5.420;2022-10-17T08:19:38;101889.63;;;15.95;100.00
72110;BME280;59983;52.010;5.420;2022-10-17T08:22:06;101871.28;;;15.96;100.00
72110;BME280;59983;52.010;5.420;2022-10-17T08:24:32;101878.34;;;15.97;100.00
72110;BME280;59983;52.010;5.420;2022-10-17T08:26:59;101880.38;;;16.00;100.00
72110;BME280;59983;52.010;5.420;2022-10-17T08:29:26;101869.44;;;16.00;100.00
72110;BME280;59983;52.010;5.420;2022-10-17T08:31:52;101877.28;;;16.01;100.00
72110;BME280;59983;52.010;5.420;2022-10-17T08:34:26;101896.44;;;16.01;100.00
72110;BME280;59983;52.010;5.420;2022-10-17T08:36:53;101912.84;;;16.01;100.00
72110;BME280;59983;52.010;5.420;2022-10-17T08:39:19;101931.66;;;16.03;100.00
72110;BME280;59983;52.010;5.420;2022-10-17T08:42:02;101961.84;;;16.06;100.00
72110;BME280;59983;52.010;5.420;2022-10-17T08:44:42;101975.19;;;16.08;100.00
72110;BME280;59983;52.010;5.420;2022-10-17T08:47:19;101993.97;;;16.09;100.00
72110;BME280;59983;52.010;5.420;2022-10-17T08:49:51;101968.56;;;16.09;100.00
72110;BME280;59983;52.010;5.420;2022-10-17T08:52:24;101964.31;;;16.11;100.00
72110;BME280;59983;52.010;5.420;2022-10-17T08:54:55;101961.22;;;16.13;100.00
72110;BME280;59983;52.010;5.420;2022-10-17T08:57:21;101938.16;;;16.14;100.00
72110;BME280;59983;52.010;5.420;2022-10-17T08:59:49;101921.75;;;16.14;100.00
72110;BME280;59983;52.010;5.420;2022-10-17T09:02:48;101903.78;;;16.17;100.00
72110;BME280;59983;52.010;5.420;2022-10-17T09:06:09;101908.16;;;16.18;100.00
72110;BME280;59983;52.010;5.420;2022-10-17T09:08:23;101884.31;;;16.18;100.00
72110;BME280;59983;52.010;5.420;2022-10-17T09:11:01;101878.09;;;16.21;100.00
72110;BME280;59983;52.010;5.420;2022-10-17T09:18:34;101862.91;;;16.24;100.00
72110;BME280;59983;52.010;5.420;2022-10-17T09:21:27;101875.44;;;16.25;100.00
72110;BME280;59983;52.010;5.420;2022-10-17T09:23:59;101889.91;;;16.25;100.00
72110;BME280;59983;52.010;5.420;2022-10-17T09:26:37;101883.66;;;16.25;100.00
72110;BME280;59983;52.010;5.420;2022-10-17T09:29:14;101902.00;;;16.24;100.00
72110;BME280;59983;52.010;5.420;2022-10-17T09:31:44;101932.13;;;16.24;100.00
72110;BME280;59983;52.010;5.420;2022-10-17T09:34:13;101968.50;;;16.25;100.00
72110;BME280;59983;52.010;5.420;2022-10-17T09:36:39;101962.97;;;16.21;100.00
72110;BME280;59983;52.010;5.420;2022-10-17T09:39:16;101953.97;;;16.21;100.00
72110;BME280;59983;52.010;5.420;2022-10-17T09:41:54;101915.28;;;16.22;100.00
72110;BME280;59983;52.010;5.420;2022-10-17T09:49:52;101892.66;;;16.25;100.00
72110;BME280;59983;52.010;5.420;2022-10-17T09:52:35;101877.03;;;16.26;100.00
72110;BME280;59983;52.010;5.420;2022-10-17T09:55:21;101900.22;;;16.32;100.00
72110;BME280;59983;52.010;5.420;2022-10-17T09:57:57;101908.09;;;16.33;100.00
72110;BME280;59983;52.010;5.420;2022-10-17T10:05:33;101924.97;;;16.35;100.00
72110;BME280;59983;52.010;5.420;2022-10-17T10:08:20;101930.00;;;16.33;100.00
72110;BME280;59983;52.010;5.420;2022-10-17T10:11:00;101944.13;;;16.35;100.00
72110;BME280;59983;52.010;5.420;2022-10-17T10:13:30;101948.03;;;16.34;100.00
72110;BME280;59983;52.010;5.420;2022-10-17T10:18:39;101957.09;;;16.38;100.00
72110;BME280;59983;52.010;5.420;2022-10-17T10:21:21;101965.31;;;16.38;100.00
72110;BME280;59983;52.010;5.420;2022-10-17T10:26:38;101990.34;;;16.37;100.00
72110;BME280;59983;52.010;5.420;2022-10-17T10:31:46;102005.97;;;16.36;100.00
72110;BME280;59983;52.010;5.420;2022-10-17T10:34:21;101990.34;;;16.37;100.00
72110;BME280;59983;52.010;5.420;2022-10-17T10:36:56;102005.59;;;16.38;100.00
72110;BME280;59983;52.010;5.420;2022-10-17T10:42:05;102024.78;;;16.38;100.00
72110;BME280;59983;52.010;5.420;2022-10-17T10:44:32;102029.09;;;16.39;100.00
72110;BME280;59983;52.010;5.420;2022-10-17T10:47:24;102036.09;;;16.36;100.00
72110;BME280;59983;52.010;5.420;2022-10-17T10:50:48;102045.47;;;16.35;100.00
72110;BME280;59983;52.010;5.420;2022-10-17T10:52:59;102048.19;;;16.35;100.00
72110;BME280;59983;52.010;5.420;2022-10-17T10:55:48;102047.03;;;16.36;100.00
72110;BME280;59983;52.010;5.420;2022-10-17T11:00:52;102049.06;;;16.39;100.00
72110;BME280;59983;52.010;5.420;2022-10-17T11:03:34;102049.06;;;16.39;100.00
72110;BME280;59983;52.010;5.420;2022-10-17T11:06:07;102053.38;;;16.40;100.00
72110;BME280;59983;52.010;5.420;2022-10-17T11:11:36;102047.56;;;16.42;100.00
72110;BME280;59983;52.010;5.420;2022-10-17T11:14:11;102050.81;;;16.48;100.00
72110;BME280;59983;52.010;5.420;2022-10-17T11:16:45;102055.94;;;16.49;100.00
72110;BME280;59983;52.010;5.420;2022-10-17T11:19:24;102067.78;;;16.53;100.00
72110;BME280;59983;52.010;5.420;2022-10-17T11:24:37;102077.59;;;16.54;100.00
72110;BME280;59983;52.010;5.420;2022-10-17T11:27:06;102083.88;;;16.55;100.00
72110;BME280;59983;52.010;5.420;2022-10-17T11:29:35;102079.63;;;16.57;100.00
72110;BME280;59983;52.010;5.420;2022-10-17T11:32:18;102091.38;;;16.58;100.00
72110;BME280;59983;52.010;5.420;2022-10-17T11:34:48;102089.84;;;16.60;100.00
72110;BME280;59983;52.010;5.420;2022-10-17T11:37:30;102087.84;;;16.57;100.00
72110;BME280;59983;52.010;5.420;2022-10-17T11:40:01;102102.75;;;16.60;100.00
72110;BME280;59983;52.010;5.420;2022-10-17T11:42:35;102101.16;;;16.59;100.00
72110;BME280;59983;52.010;5.420;2022-10-17T11:45:10;102102.75;;;16.60;100.00
72110;BME280;59983;52.010;5.420;2022-10-17T11:47:49;102111.78;;;16.60;100.00
72110;BME280;59983;52.010;5.420;2022-10-17T11:50:38;102104.00;;;16.62;100.00
72110;BME280;59983;52.010;5.420;2022-10-17T11:53:30;102109.84;;;16.61;100.00
72110;BME280;59983;52.010;5.420;2022-10-17T11:55:57;102101.72;;;16.64;100.00
72110;BME280;59983;52.010;5.420;2022-10-17T11:58:40;102096.44;;;16.72;100.00
72110;BME280;59983;52.010;5.420;2022-10-17T12:01:23;102110.63;;;16.77;100.00
72110;BME280;59983;52.010;5.420;2022-10-17T12:09:47;102101.34;;;16.82;100.00
72110;BME280;59983;52.010;5.420;2022-10-17T12:12:27;102103.75;;;16.83;100.00
72110;BME280;59983;52.010;5.420;2022-10-17T12:25:46;102102.50;;;16.81;100.00
72110;BME280;59983;52.010;5.420;2022-10-17T12:30:56;102111.09;;;16.79;100.00
72110;BME280;59983;52.010;5.420;2022-10-17T12:33:34;102104.34;;;16.77;100.00
72110;BME280;59983;52.010;5.420;2022-10-17T12:38:48;102124.78;;;16.79;100.00
72110;BME280;59983;52.010;5.420;2022-10-17T12:41:16;102126.75;;;16.79;100.00
72110;BME280;59983;52.010;5.420;2022-10-17T12:43:48;102130.59;;;16.78;100.00
72110;BME280;59983;52.010;5.420;2022-10-17T12:46:48;102131.41;;;16.78;100.00
72110;BME280;59983;52.010;5.420;2022-10-17T12:54:43;102136.00;;;16.74;100.00
72110;BME280;59983;52.010;5.420;2022-10-17T13:00:02;102141.84;;;16.73;100.00
72110;BME280;59983;52.010;5.420;2022-10-17T13:02:29;102149.28;;;16.72;100.00
72110;BME280;59983;52.010;5.420;2022-10-17T13:05:04;102149.28;;;16.72;100.00
72110;BME280;59983;52.010;5.420;2022-10-17T13:07:40;102158.28;;;16.73;100.00
72110;BME280;59983;52.010;5.420;2022-10-17T13:10:18;102151.66;;;16.74;100.00
72110;BME280;59983;52.010;5.420;2022-10-17T13:12:46;102152.03;;;16.72;100.00
72110;BME280;59983;52.010;5.420;2022-10-17T13:15:16;102149.72;;;16.74;100.00
72110;BME280;59983;52.010;5.420;2022-10-17T13:17:44;102161.91;;;16.77;100.00
72110;BME280;59983;52.010;5.420;2022-10-17T13:20:20;102165.09;;;16.79;100.00
72110;BME280;59983;52.010;5.420;2022-10-17T13:22:55;102175.72;;;16.80;100.00
72110;BME280;59983;52.010;5.420;2022-10-17T13:25:24;102169.44;;;16.80;100.00
72110;BME280;59983;52.010;5.420;2022-10-17T13:28:03;102179.59;;;16.79;100.00
72110;BME280;59983;52.010;5.420;2022-10-17T13:30:32;102189.84;;;16.82;100.00
72110;BME280;59983;52.010;5.420;2022-10-17T13:33:00;102193.03;;;16.84;100.00
72110;BME280;59983;52.010;5.420;2022-10-17T13:35:33;102198.50;;;16.84;100.00
72110;BME280;59983;52.010;5.420;2022-10-17T13:38:25;102210.38;;;16.88;100.00
72110;BME280;59983;52.010;5.420;2022-10-17T13:40:52;102217.34;;;16.86;100.00
72110;BME280;59983;52.010;5.420;2022-10-17T13:43:31;102212.56;;;16.83;100.00
72110;BME280;59983;52.010;5.420;2022-10-17T13:46:01;102223.88;;;16.81;100.00
72110;BME280;59983;52.010;5.420;2022-10-17T13:48:51;102221.50;;;16.80;100.00
72110;BME280;59983;52.010;5.420;2022-10-17T13:51:17;102220.25;;;16.77;100.00
72110;BME280;59983;52.010;5.420;2022-10-17T13:53:44;102223.78;;;16.78;100.00
72110;BME280;59983;52.010;5.420;2022-10-17T13:56:25;102236.34;;;16.79;100.00
72110;BME280;59983;52.010;5.420;2022-10-17T13:58:57;102240.22;;;16.78;100.00
72110;BME280;59983;52.010;5.420;2022-10-17T14:01:26;102242.63;;;16.79;100.00
72110;BME280;59983;52.010;5.420;2022-10-17T14:03:53;102248.91;;;16.80;100.00
72110;BME280;59983;52.010;5.420;2022-10-17T14:06:40;102247.03;;;16.84;100.00
72110;BME280;59983;52.010;5.420;2022-10-17T14:11:58;102239.91;;;16.79;100.00
72110;BME280;59983;52.010;5.420;2022-10-17T14:14:25;102232.91;;;16.82;100.00
72110;BME280;59983;52.010;5.420;2022-10-17T14:16:53;102238.47;;;16.85;100.00
72110;BME280;59983;52.010;5.420;2022-10-17T14:19:30;102243.59;;;16.87;100.00
72110;BME280;59983;52.010;5.420;2022-10-17T14:24:47;102242.09;;;16.89;100.00
72110;BME280;59983;52.010;5.420;2022-10-17T14:27:53;102244.91;;;16.93;100.00
72110;BME280;59983;52.010;5.420;2022-10-17T14:33:36;102235.53;;;16.94;100.00
72110;BME280;59983;52.010;5.420;2022-10-17T14:36:07;102215.66;;;16.97;100.00
72110;BME280;59983;52.010;5.420;2022-10-17T14:38:34;102216.09;;;16.99;100.00
72110;BME280;59983;52.010;5.420;2022-10-17T14:41:07;102225.28;;;17.07;100.00
72110;BME280;59983;52.010;5.420;2022-10-17T14:43:57;102228.91;;;17.11;100.00
72110;BME280;59983;52.010;5.420;2022-10-17T14:46:24;102230.59;;;17.15;100.00